sensor_id;sensor_type;location;lat;lon;timestamp;P1;durP1;ratioP1;P2;durP2;ratioP2
44728;SDS011;30457;53.590;9.922;2022-08-04T00:08:56;3.38;;;2.42;;
44728;SDS011;30457;53.590;9.922;2022-08-04T00:13:26;4.88;;;2.50;;
44728;SDS011;30457;53.590;9.922;2022-08-04T00:18:13;5.75;;;2.40;;
44728;SDS011;30457;53.590;9.922;2022-08-04T00:22:40;8.15;;;2.60;;
44728;SDS011;30457;53.590;9.922;2022-08-04T00:27:09;4.70;;;3.08;;
44728;SDS011;30457;53.590;9.922;2022-08-04T00:31:35;9.38;;;2.50;;
44728;SDS011;30457;53.590;9.922;2022-08-04T00:36:00;4.57;;;2.95;;
44728;SDS011;30457;53.590;9.922;2022-08-04T01:04:02;8.18;;;2.85;;
44728;SDS011;30457;53.590;9.922;2022-08-04T01:08:40;3.55;;;2.03;;
44728;SDS011;30457;53.590;9.922;2022-08-04T01:13:13;5.05;;;2.70;;
44728;SDS011;30457;53.590;9.922;2022-08-04T01:22:35;5.07;;;2.20;;
44728;SDS011;30457;53.590;9.922;2022-08-04T01:32:18;4.55;;;2.00;;
44728;SDS011;30457;53.590;9.922;2022-08-04T01:36:46;3.65;;;2.20;;
44728;SDS011;30457;53.590;9.922;2022-08-04T01:41:20;3.03;;;2.00;;
44728;SDS011;30457;53.590;9.922;2022-08-04T01:45:54;4.57;;;2.08;;
44728;SDS011;30457;53.590;9.922;2022-08-04T01:50:22;4.20;;;1.88;;
44728;SDS011;30457;53.590;9.922;2022-08-04T01:54:50;4.47;;;2.00;;
44728;SDS011;30457;53.590;9.922;2022-08-04T01:59:17;1.88;;;1.60;;
44728;SDS011;30457;53.590;9.922;2022-08-04T02:03:44;7.38;;;1.90;;
44728;SDS011;30457;53.590;9.922;2022-08-04T02:12:49;4.20;;;1.90;;
44728;SDS011;30457;53.590;9.922;2022-08-04T02:22:24;2.65;;;1.70;;
44728;SDS011;30457;53.590;9.922;2022-08-04T02:26:52;6.75;;;1.88;;
44728;SDS011;30457;53.590;9.922;2022-08-04T02:31:30;1.98;;;1.40;;
44728;SDS011;30457;53.590;9.922;2022-08-04T02:36:00;5.88;;;1.70;;
44728;SDS011;30457;53.590;9.922;2022-08-04T02:40:27;4.00;;;1.65;;
44728;SDS011;30457;53.590;9.922;2022-08-04T02:44:58;2.95;;;1.58;;
44728;SDS011;30457;53.590;9.922;2022-08-04T02:49:24;5.00;;;2.10;;
44728;SDS011;30457;53.590;9.922;2022-08-04T02:53:54;4.15;;;1.80;;
44728;SDS011;30457;53.590;9.922;2022-08-04T02:58:21;5.13;;;1.80;;
44728;SDS011;30457;53.590;9.922;2022-08-04T03:22:15;3.83;;;1.30;;
44728;SDS011;30457;53.590;9.922;2022-08-04T03:41:14;5.38;;;1.58;;
44728;SDS011;30457;53.590;9.922;2022-08-04T03:46:07;2.03;;;1.55;;
44728;SDS011;30457;53.590;9.922;2022-08-04T03:50:59;5.03;;;1.40;;
44728;SDS011;30457;53.590;9.922;2022-08-04T03:56:10;3.73;;;1.63;;
44728;SDS011;30457;53.590;9.922;2022-08-04T04:24:54;3.30;;;2.00;;
44728;SDS011;30457;53.590;9.922;2022-08-04T04:34:49;4.97;;;1.58;;
44728;SDS011;30457;53.590;9.922;2022-08-04T04:49:53;8.02;;;2.83;;
44728;SDS011;30457;53.590;9.922;2022-08-04T04:59:01;4.35;;;1.60;;
44728;SDS011;30457;53.590;9.922;2022-08-04T05:03:36;7.22;;;2.08;;
44728;SDS011;30457;53.590;9.922;2022-08-04T05:13:24;3.50;;;2.30;;
44728;SDS011;30457;53.590;9.922;2022-08-04T05:17:58;2.72;;;1.70;;
44728;SDS011;30457;53.590;9.922;2022-08-04T05:27:19;8.02;;;2.30;;
44728;SDS011;30457;53.590;9.922;2022-08-04T05:31:54;5.97;;;2.57;;
44728;SDS011;30457;53.590;9.922;2022-08-04T05:36:25;4.57;;;2.15;;
44728;SDS011;30457;53.590;9.922;2022-08-04T05:45:24;4.90;;;2.10;;
44728;SDS011;30457;53.590;9.922;2022-08-04T05:49:51;6.70;;;2.47;;
44728;SDS011;30457;53.590;9.922;2022-08-04T05:54:18;7.85;;;2.30;;
44728;SDS011;30457;53.590;9.922;2022-08-04T05:58:45;9.40;;;2.40;;
44728;SDS011;30457;53.590;9.922;2022-08-04T06:03:11;7.25;;;2.38;;
44728;SDS011;30457;53.590;9.922;2022-08-04T06:07:38;7.72;;;2.55;;
44728;SDS011;30457;53.590;9.922;2022-08-04T06:12:17;12.32;;;2.60;;
44728;SDS011;30457;53.590;9.922;2022-08-04T06:16:45;5.78;;;2.13;;
44728;SDS011;30457;53.590;9.922;2022-08-04T06:21:13;10.40;;;2.55;;
44728;SDS011;30457;53.590;9.922;2022-08-04T06:25:42;6.00;;;2.20;;
44728;SDS011;30457;53.590;9.922;2022-08-04T06:30:11;6.13;;;2.83;;
44728;SDS011;30457;53.590;9.922;2022-08-04T06:34:40;17.67;;;2.80;;
44728;SDS011;30457;53.590;9.922;2022-08-04T06:39:07;6.78;;;3.22;;
44728;SDS011;30457;53.590;9.922;2022-08-04T06:43:35;7.78;;;2.75;;
44728;SDS011;30457;53.590;9.922;2022-08-04T06:48:03;6.65;;;2.42;;
44728;SDS011;30457;53.590;9.922;2022-08-04T06:52:30;9.93;;;3.20;;
44728;SDS011;30457;53.590;9.922;2022-08-04T06:56:56;5.70;;;2.33;;
44728;SDS011;30457;53.590;9.922;2022-08-04T07:01:23;11.48;;;2.65;;
44728;SDS011;30457;53.590;9.922;2022-08-04T07:05:50;10.57;;;3.03;;
44728;SDS011;30457;53.590;9.922;2022-08-04T07:10:17;6.63;;;2.50;;
44728;SDS011;30457;53.590;9.922;2022-08-04T07:14:42;4.88;;;2.45;;
44728;SDS011;30457;53.590;9.922;2022-08-04T07:19:09;21.17;;;4.40;;
44728;SDS011;30457;53.590;9.922;2022-08-04T07:23:34;7.00;;;2.00;;
44728;SDS011;30457;53.590;9.922;2022-08-04T07:28:00;9.02;;;2.35;;
44728;SDS011;30457;53.590;9.922;2022-08-04T07:32:26;5.43;;;2.10;;
44728;SDS011;30457;53.590;9.922;2022-08-04T07:36:52;6.15;;;2.30;;
44728;SDS011;30457;53.590;9.922;2022-08-04T07:41:20;3.83;;;2.20;;
44728;SDS011;30457;53.590;9.922;2022-08-04T07:45:47;9.75;;;2.22;;
44728;SDS011;30457;53.590;9.922;2022-08-04T07:50:13;5.57;;;2.20;;
44728;SDS011;30457;53.590;9.922;2022-08-04T07:54:40;8.73;;;2.33;;
44728;SDS011;30457;53.590;9.922;2022-08-04T07:59:06;8.05;;;2.42;;
44728;SDS011;30457;53.590;9.922;2022-08-04T08:03:32;4.25;;;2.22;;
44728;SDS011;30457;53.590;9.922;2022-08-04T08:07:58;11.25;;;2.65;;
44728;SDS011;30457;53.590;9.922;2022-08-04T08:12:24;3.97;;;1.98;;
44728;SDS011;30457;53.590;9.922;2022-08-04T08:16:54;13.35;;;2.10;;
44728;SDS011;30457;53.590;9.922;2022-08-04T08:21:20;3.67;;;2.00;;
44728;SDS011;30457;53.590;9.922;2022-08-04T08:25:46;7.38;;;2.25;;
44728;SDS011;30457;53.590;9.922;2022-08-04T08:30:11;3.95;;;1.70;;
44728;SDS011;30457;53.590;9.922;2022-08-04T08:34:37;7.97;;;1.90;;
44728;SDS011;30457;53.590;9.922;2022-08-04T08:39:17;5.60;;;1.50;;
44728;SDS011;30457;53.590;9.922;2022-08-04T08:43:53;4.50;;;1.55;;
44728;SDS011;30457;53.590;9.922;2022-08-04T08:49:08;7.18;;;1.85;;
44728;SDS011;30457;53.590;9.922;2022-08-04T08:59:00;5.95;;;1.42;;
44728;SDS011;30457;53.590;9.922;2022-08-04T09:08:43;6.53;;;2.13;;
44728;SDS011;30457;53.590;9.922;2022-08-04T09:27:53;8.10;;;1.98;;
44728;SDS011;30457;53.590;9.922;2022-08-04T09:37:06;7.20;;;1.85;;
44728;SDS011;30457;53.590;9.922;2022-08-04T09:41:45;3.78;;;1.60;;
44728;SDS011;30457;53.590;9.922;2022-08-04T09:50:57;4.90;;;2.63;;
44728;SDS011;30457;53.590;9.922;2022-08-04T10:00:16;4.80;;;1.90;;
44728;SDS011;30457;53.590;9.922;2022-08-04T10:04:44;3.15;;;2.00;;
44728;SDS011;30457;53.590;9.922;2022-08-04T10:14:04;2.20;;;1.80;;
44728;SDS011;30457;53.590;9.922;2022-08-04T10:19:06;6.47;;;2.30;;
44728;SDS011;30457;53.590;9.922;2022-08-04T10:28:34;6.32;;;1.95;;
44728;SDS011;30457;53.590;9.922;2022-08-04T10:33:17;2.97;;;1.75;;
44728;SDS011;30457;53.590;9.922;2022-08-04T10:38:05;4.15;;;2.38;;
44728;SDS011;30457;53.590;9.922;2022-08-04T10:42:37;2.53;;;1.90;;
44728;SDS011;30457;53.590;9.922;2022-08-04T10:47:13;2.78;;;1.75;;
44728;SDS011;30457;53.590;9.922;2022-08-04T10:51:45;6.13;;;1.98;;
44728;SDS011;30457;53.590;9.922;2022-08-04T10:56:42;3.17;;;1.83;;
44728;SDS011;30457;53.590;9.922;2022-08-04T11:01:34;3.92;;;1.83;;
44728;SDS011;30457;53.590;9.922;2022-08-04T11:06:04;2.15;;;1.70;;
44728;SDS011;30457;53.590;9.922;2022-08-04T11:10:32;6.70;;;2.08;;
44728;SDS011;30457;53.590;9.922;2022-08-04T11:15:20;1.85;;;1.75;;
44728;SDS011;30457;53.590;9.922;2022-08-04T11:20:01;1.83;;;1.73;;
44728;SDS011;30457;53.590;9.922;2022-08-04T11:29:16;3.88;;;1.73;;
44728;SDS011;30457;53.590;9.922;2022-08-04T11:34:19;6.07;;;2.15;;
44728;SDS011;30457;53.590;9.922;2022-08-04T11:38:48;1.70;;;1.60;;
44728;SDS011;30457;53.590;9.922;2022-08-04T11:43:28;1.80;;;1.45;;
44728;SDS011;30457;53.590;9.922;2022-08-04T11:48:02;2.45;;;1.60;;
44728;SDS011;30457;53.590;9.922;2022-08-04T11:52:40;2.10;;;1.60;;
44728;SDS011;30457;53.590;9.922;2022-08-04T11:57:08;2.80;;;1.70;;
44728;SDS011;30457;53.590;9.922;2022-08-04T12:06:29;1.85;;;1.60;;
44728;SDS011;30457;53.590;9.922;2022-08-04T12:16:02;1.95;;;1.85;;
44728;SDS011;30457;53.590;9.922;2022-08-04T12:20:33;1.42;;;1.30;;
44728;SDS011;30457;53.590;9.922;2022-08-04T12:29:33;3.72;;;1.65;;
44728;SDS011;30457;53.590;9.922;2022-08-04T12:38:49;1.73;;;1.42;;
44728;SDS011;30457;53.590;9.922;2022-08-04T12:43:36;3.33;;;1.77;;
44728;SDS011;30457;53.590;9.922;2022-08-04T12:48:06;2.22;;;1.60;;
44728;SDS011;30457;53.590;9.922;2022-08-04T12:52:40;3.55;;;1.80;;
44728;SDS011;30457;53.590;9.922;2022-08-04T12:57:17;1.88;;;1.77;;
44728;SDS011;30457;53.590;9.922;2022-08-04T13:01:47;3.10;;;1.92;;
44728;SDS011;30457;53.590;9.922;2022-08-04T13:06:14;2.90;;;1.90;;
44728;SDS011;30457;53.590;9.922;2022-08-04T13:10:44;1.85;;;1.65;;
44728;SDS011;30457;53.590;9.922;2022-08-04T13:15:14;2.60;;;1.50;;
44728;SDS011;30457;53.590;9.922;2022-08-04T13:19:48;2.70;;;1.80;;
44728;SDS011;30457;53.590;9.922;2022-08-04T13:24:19;3.95;;;1.50;;
44728;SDS011;30457;53.590;9.922;2022-08-04T13:28:47;2.10;;;1.90;;
44728;SDS011;30457;53.590;9.922;2022-08-04T13:33:16;1.67;;;1.58;;
44728;SDS011;30457;53.590;9.922;2022-08-04T13:37:44;3.17;;;2.05;;
44728;SDS011;30457;53.590;9.922;2022-08-04T13:42:11;3.80;;;1.58;;
44728;SDS011;30457;53.590;9.922;2022-08-04T13:46:39;1.50;;;1.40;;
44728;SDS011;30457;53.590;9.922;2022-08-04T13:51:10;3.33;;;1.83;;
44728;SDS011;30457;53.590;9.922;2022-08-04T13:55:36;4.50;;;1.63;;
44728;SDS011;30457;53.590;9.922;2022-08-04T14:00:06;1.95;;;1.70;;
44728;SDS011;30457;53.590;9.922;2022-08-04T14:04:33;2.58;;;1.40;;
44728;SDS011;30457;53.590;9.922;2022-08-04T14:09:09;1.60;;;1.50;;
44728;SDS011;30457;53.590;9.922;2022-08-04T14:13:39;6.53;;;1.52;;
44728;SDS011;30457;53.590;9.922;2022-08-04T14:18:21;3.25;;;1.65;;
44728;SDS011;30457;53.590;9.922;2022-08-04T14:22:47;1.73;;;1.38;;
44728;SDS011;30457;53.590;9.922;2022-08-04T14:27:12;2.40;;;1.50;;
44728;SDS011;30457;53.590;9.922;2022-08-04T14:31:38;2.42;;;1.50;;
44728;SDS011;30457;53.590;9.922;2022-08-04T14:36:04;8.38;;;1.77;;
44728;SDS011;30457;53.590;9.922;2022-08-04T14:40:32;3.20;;;1.90;;
44728;SDS011;30457;53.590;9.922;2022-08-04T14:44:59;10.48;;;1.92;;
44728;SDS011;30457;53.590;9.922;2022-08-04T14:49:25;5.93;;;2.35;;
44728;SDS011;30457;53.590;9.922;2022-08-04T14:53:51;4.03;;;2.17;;
44728;SDS011;30457;53.590;9.922;2022-08-04T14:58:24;6.82;;;2.30;;
44728;SDS011;30457;53.590;9.922;2022-08-04T15:02:56;4.28;;;2.05;;
44728;SDS011;30457;53.590;9.922;2022-08-04T15:07:26;4.65;;;1.98;;
44728;SDS011;30457;53.590;9.922;2022-08-04T15:11:51;5.03;;;2.72;;
44728;SDS011;30457;53.590;9.922;2022-08-04T15:16:17;7.25;;;2.47;;
44728;SDS011;30457;53.590;9.922;2022-08-04T15:20:44;11.63;;;2.75;;
44728;SDS011;30457;53.590;9.922;2022-08-04T15:25:10;8.13;;;2.20;;
44728;SDS011;30457;53.590;9.922;2022-08-04T15:29:37;6.72;;;2.20;;
44728;SDS011;30457;53.590;9.922;2022-08-04T15:34:08;9.88;;;2.55;;
44728;SDS011;30457;53.590;9.922;2022-08-04T15:38:49;8.77;;;3.25;;
44728;SDS011;30457;53.590;9.922;2022-08-04T15:43:30;9.45;;;2.60;;
44728;SDS011;30457;53.590;9.922;2022-08-04T15:48:22;10.15;;;2.50;;
44728;SDS011;30457;53.590;9.922;2022-08-04T15:53:00;11.60;;;2.40;;
44728;SDS011;30457;53.590;9.922;2022-08-04T15:58:09;7.70;;;2.25;;
44728;SDS011;30457;53.590;9.922;2022-08-04T16:07:03;6.43;;;1.67;;
44728;SDS011;30457;53.590;9.922;2022-08-04T16:16:00;3.72;;;1.75;;
44728;SDS011;30457;53.590;9.922;2022-08-04T16:20:26;5.68;;;1.55;;
44728;SDS011;30457;53.590;9.922;2022-08-04T16:24:52;4.45;;;1.80;;
44728;SDS011;30457;53.590;9.922;2022-08-04T16:33:47;9.05;;;3.03;;
44728;SDS011;30457;53.590;9.922;2022-08-04T16:38:13;4.50;;;1.77;;
44728;SDS011;30457;53.590;9.922;2022-08-04T16:42:40;7.35;;;2.28;;
44728;SDS011;30457;53.590;9.922;2022-08-04T16:47:06;4.68;;;2.05;;
44728;SDS011;30457;53.590;9.922;2022-08-04T16:51:32;2.97;;;1.63;;
44728;SDS011;30457;53.590;9.922;2022-08-04T16:55:58;11.18;;;2.40;;
44728;SDS011;30457;53.590;9.922;2022-08-04T17:00:31;4.15;;;1.92;;
44728;SDS011;30457;53.590;9.922;2022-08-04T17:05:00;6.13;;;2.30;;
44728;SDS011;30457;53.590;9.922;2022-08-04T17:09:26;6.97;;;1.90;;
44728;SDS011;30457;53.590;9.922;2022-08-04T17:13:52;5.63;;;2.53;;
44728;SDS011;30457;53.590;9.922;2022-08-04T17:18:36;4.60;;;2.60;;
44728;SDS011;30457;53.590;9.922;2022-08-04T17:28:07;3.78;;;1.90;;
44728;SDS011;30457;53.590;9.922;2022-08-04T17:32:33;2.85;;;1.80;;
44728;SDS011;30457;53.590;9.922;2022-08-04T17:37:01;6.97;;;1.70;;
44728;SDS011;30457;53.590;9.922;2022-08-04T17:41:28;6.18;;;2.47;;
44728;SDS011;30457;53.590;9.922;2022-08-04T17:46:14;6.88;;;1.98;;
44728;SDS011;30457;53.590;9.922;2022-08-04T17:50:40;3.38;;;2.13;;
44728;SDS011;30457;53.590;9.922;2022-08-04T17:55:06;3.90;;;1.85;;
44728;SDS011;30457;53.590;9.922;2022-08-04T18:09:01;7.22;;;2.40;;
44728;SDS011;30457;53.590;9.922;2022-08-04T18:13:27;3.55;;;1.90;;
44728;SDS011;30457;53.590;9.922;2022-08-04T18:17:57;5.85;;;2.28;;
44728;SDS011;30457;53.590;9.922;2022-08-04T18:22:22;7.78;;;2.20;;
44728;SDS011;30457;53.590;9.922;2022-08-04T18:26:48;4.78;;;2.03;;
44728;SDS011;30457;53.590;9.922;2022-08-04T18:31:15;4.10;;;1.60;;
44728;SDS011;30457;53.590;9.922;2022-08-04T18:35:41;10.55;;;2.40;;
44728;SDS011;30457;53.590;9.922;2022-08-04T18:40:07;5.82;;;2.10;;
44728;SDS011;30457;53.590;9.922;2022-08-04T18:44:34;6.25;;;2.47;;
44728;SDS011;30457;53.590;9.922;2022-08-04T18:49:00;7.30;;;2.03;;
44728;SDS011;30457;53.590;9.922;2022-08-04T18:53:25;4.70;;;2.25;;
44728;SDS011;30457;53.590;9.922;2022-08-04T18:57:51;1.90;;;1.45;;
44728;SDS011;30457;53.590;9.922;2022-08-04T19:02:17;3.88;;;1.65;;
44728;SDS011;30457;53.590;9.922;2022-08-04T19:06:42;3.25;;;1.42;;
44728;SDS011;30457;53.590;9.922;2022-08-04T19:11:08;4.90;;;1.90;;
44728;SDS011;30457;53.590;9.922;2022-08-04T19:15:34;5.25;;;1.58;;
44728;SDS011;30457;53.590;9.922;2022-08-04T19:19:59;6.18;;;1.50;;
44728;SDS011;30457;53.590;9.922;2022-08-04T19:24:27;3.40;;;1.33;;
44728;SDS011;30457;53.590;9.922;2022-08-04T19:28:52;3.05;;;1.40;;
44728;SDS011;30457;53.590;9.922;2022-08-04T19:33:18;4.43;;;1.50;;
44728;SDS011;30457;53.590;9.922;2022-08-04T19:37:44;11.35;;;2.33;;
44728;SDS011;30457;53.590;9.922;2022-08-04T19:42:10;3.78;;;1.20;;
44728;SDS011;30457;53.590;9.922;2022-08-04T19:46:35;5.80;;;2.38;;
44728;SDS011;30457;53.590;9.922;2022-08-04T19:51:01;4.07;;;2.38;;
44728;SDS011;30457;53.590;9.922;2022-08-04T19:55:27;2.13;;;1.50;;
44728;SDS011;30457;53.590;9.922;2022-08-04T19:59:53;2.00;;;1.33;;
44728;SDS011;30457;53.590;9.922;2022-08-04T20:04:18;2.72;;;1.60;;
44728;SDS011;30457;53.590;9.922;2022-08-04T20:08:44;3.30;;;1.73;;
44728;SDS011;30457;53.590;9.922;2022-08-04T20:13:09;3.53;;;1.60;;
44728;SDS011;30457;53.590;9.922;2022-08-04T20:17:35;5.70;;;2.05;;
44728;SDS011;30457;53.590;9.922;2022-08-04T20:22:01;5.68;;;2.85;;
44728;SDS011;30457;53.590;9.922;2022-08-04T20:26:26;5.50;;;2.60;;
44728;SDS011;30457;53.590;9.922;2022-08-04T20:30:52;6.35;;;2.08;;
44728;SDS011;30457;53.590;9.922;2022-08-04T20:35:18;6.32;;;2.72;;
44728;SDS011;30457;53.590;9.922;2022-08-04T20:39:53;8.40;;;2.92;;
44728;SDS011;30457;53.590;9.922;2022-08-04T20:44:20;5.82;;;2.50;;
44728;SDS011;30457;53.590;9.922;2022-08-04T20:48:45;5.15;;;2.97;;
44728;SDS011;30457;53.590;9.922;2022-08-04T20:53:11;9.40;;;3.30;;
44728;SDS011;30457;53.590;9.922;2022-08-04T20:57:36;9.05;;;3.72;;
44728;SDS011;30457;53.590;9.922;2022-08-04T21:02:03;8.15;;;3.47;;
44728;SDS011;30457;53.590;9.922;2022-08-04T21:06:29;8.82;;;3.38;;
44728;SDS011;30457;53.590;9.922;2022-08-04T21:10:55;7.38;;;3.47;;
44728;SDS011;30457;53.590;9.922;2022-08-04T21:15:20;11.95;;;4.25;;
44728;SDS011;30457;53.590;9.922;2022-08-04T21:19:49;15.95;;;5.75;;
44728;SDS011;30457;53.590;9.922;2022-08-04T21:24:14;10.85;;;4.90;;
44728;SDS011;30457;53.590;9.922;2022-08-04T21:28:40;11.13;;;5.25;;
44728;SDS011;30457;53.590;9.922;2022-08-04T21:33:05;11.32;;;4.70;;
44728;SDS011;30457;53.590;9.922;2022-08-04T21:37:31;8.50;;;4.50;;
44728;SDS011;30457;53.590;9.922;2022-08-04T21:41:56;12.85;;;4.90;;
44728;SDS011;30457;53.590;9.922;2022-08-04T21:46:23;11.95;;;4.63;;
44728;SDS011;30457;53.590;9.922;2022-08-04T21:50:48;13.35;;;5.38;;
44728;SDS011;30457;53.590;9.922;2022-08-04T21:55:14;12.60;;;4.88;;
44728;SDS011;30457;53.590;9.922;2022-08-04T21:59:39;12.20;;;5.10;;
44728;SDS011;30457;53.590;9.922;2022-08-04T22:04:05;11.95;;;5.35;;
44728;SDS011;30457;53.590;9.922;2022-08-04T22:08:30;13.25;;;5.15;;
44728;SDS011;30457;53.590;9.922;2022-08-04T22:12:56;12.27;;;4.90;;
44728;SDS011;30457;53.590;9.922;2022-08-04T22:17:21;12.65;;;5.43;;
44728;SDS011;30457;53.590;9.922;2022-08-04T22:21:47;12.20;;;4.97;;
44728;SDS011;30457;53.590;9.922;2022-08-04T22:26:13;10.35;;;4.32;;
44728;SDS011;30457;53.590;9.922;2022-08-04T22:30:40;12.27;;;5.43;;
44728;SDS011;30457;53.590;9.922;2022-08-04T22:35:06;12.15;;;5.03;;
44728;SDS011;30457;53.590;9.922;2022-08-04T22:39:31;10.55;;;5.25;;
44728;SDS011;30457;53.590;9.922;2022-08-04T22:43:57;12.80;;;5.97;;
44728;SDS011;30457;53.590;9.922;2022-08-04T22:48:23;11.23;;;4.20;;
44728;SDS011;30457;53.590;9.922;2022-08-04T22:52:48;12.80;;;5.22;;
44728;SDS011;30457;53.590;9.922;2022-08-04T22:57:14;11.48;;;4.80;;
44728;SDS011;30457;53.590;9.922;2022-08-04T23:01:39;12.32;;;4.95;;
44728;SDS011;30457;53.590;9.922;2022-08-04T23:06:06;14.55;;;6.07;;
44728;SDS011;30457;53.590;9.922;2022-08-04T23:10:32;8.77;;;4.13;;
44728;SDS011;30457;53.590;9.922;2022-08-04T23:14:58;12.65;;;5.05;;
44728;SDS011;30457;53.590;9.922;2022-08-04T23:19:24;15.75;;;5.53;;
44728;SDS011;30457;53.590;9.922;2022-08-04T23:23:49;8.70;;;4.35;;
44728;SDS011;30457;53.590;9.922;2022-08-04T23:28:15;11.10;;;4.80;;
44728;SDS011;30457;53.590;9.922;2022-08-04T23:32:41;11.07;;;5.30;;
44728;SDS011;30457;53.590;9.922;2022-08-04T23:37:06;12.32;;;4.22;;
44728;SDS011;30457;53.590;9.922;2022-08-04T23:41:32;6.55;;;4.40;;
44728;SDS011;30457;53.590;9.922;2022-08-04T23:45:59;8.57;;;4.20;;
44728;SDS011;30457;53.590;9.922;2022-08-04T23:50:24;12.88;;;4.55;;
44728;SDS011;30457;53.590;9.922;2022-08-04T23:54:50;12.82;;;3.60;;
44728;SDS011;30457;53.590;9.922;2022-08-04T23:59:16;6.20;;;3.13;;
